Time;durP1;ratioP1;P1;durP2;ratioP2;P2;SDS_P1;SDS_P2;PMS_P1;PMS_P2;Temp;Humidity;BMP_temperature;BMP_pressure;BME280_temperature;BME280_humidity;BME280_pressure;Samples;Min_cycle;Max_cycle;Signal;HPM_P1;HPM_P2
2023/12/21 00:01:03;;;;;;;0.47;0.32;;;;;;;9.62;100.00;100878.25;5075665;27;100901;-28
2023/12/21 00:03:28;;;;;;;0.52;0.30;;;;;;;9.66;100.00;100874.41;5094407;27;98819;-28
2023/12/21 00:05:53;;;;;;;0.28;0.15;;;;;;;9.63;100.00;100870.06;5094690;27;102148;-28
2023/12/21 00:08:19;;;;;;;0.70;0.57;;;;;;;9.64;100.00;100854.69;5095101;27;97148;-28
2023/12/21 00:10:44;;;;;;;0.45;0.30;;;;;;;9.67;100.00;100860.78;5094687;27;99358;-28
2023/12/21 00:13:09;;;;;;;0.13;0.13;;;;;;;9.70;100.00;100857.03;5094768;27;108096;-28
2023/12/21 00:15:35;;;;;;;5.53;0.60;;;;;;;9.66;100.00;100845.53;5094726;27;96608;-29
2023/12/21 00:18:00;;;;;;;1.73;0.43;;;;;;;9.68;100.00;100851.72;5094554;27;96889;-28
2023/12/21 00:20:25;;;;;;;1.00;0.45;;;;;;;9.70;100.00;100840.81;5094280;27;98023;-28
2023/12/21 00:22:50;;;;;;;0.10;0.10;;;;;;;9.66;100.00;100840.13;5094333;27;99174;-28
2023/12/21 00:25:16;;;;;;;1.50;0.88;;;;;;;9.64;100.00;100836.63;5094853;27;96592;-27
2023/12/21 00:27:42;;;;;;;3.40;0.32;;;;;;;9.67;100.00;100832.88;5075986;27;96670;-28
2023/12/21 00:30:08;;;;;;;6.15;0.90;;;;;;;9.68;100.00;100819.28;5094335;27;99261;-28
2023/12/21 00:32:33;;;;;;;0.38;0.13;;;;;;;9.64;100.00;100803.31;5094021;27;97756;-28
2023/12/21 00:34:58;;;;;;;9.10;1.00;;;;;;;9.62;100.00;100794.41;5094417;27;96929;-28
2023/12/21 00:37:24;;;;;;;7.22;0.80;;;;;;;9.67;100.00;100798.56;5094579;27;101866;-28
2023/12/21 00:39:49;;;;;;;1.08;0.52;;;;;;;9.68;100.00;100785.94;5075740;27;98907;-28
2023/12/21 00:42:15;;;;;;;4.28;0.43;;;;;;;9.67;100.00;100795.00;5094304;27;97792;-29
2023/12/21 00:44:40;;;;;;;1.30;0.28;;;;;;;9.68;100.00;100786.81;5094050;27;96482;-28
2023/12/21 00:47:06;;;;;;;0.60;0.22;;;;;;;9.68;100.00;100791.38;5093884;27;101838;-28
2023/12/21 00:49:31;;;;;;;0.55;0.43;;;;;;;9.63;100.00;100779.91;5093925;27;99123;-28
2023/12/21 00:51:56;;;;;;;2.63;0.50;;;;;;;9.63;100.00;100775.41;5094172;27;97761;-28
2023/12/21 00:54:22;;;;;;;0.45;0.38;;;;;;;9.64;100.00;100768.16;5094169;27;96579;-28
2023/12/21 00:56:47;;;;;;;2.60;0.50;;;;;;;9.64;100.00;100769.03;5094318;27;96766;-28
2023/12/21 00:59:12;;;;;;;5.47;0.25;;;;;;;9.69;100.00;100763.34;5093556;27;109967;-28
2023/12/21 01:01:38;;;;;;;5.70;0.20;;;;;;;9.67;100.00;100768.81;5093138;27;97787;-28
2023/12/21 01:04:03;;;;;;;1.00;0.22;;;;;;;9.70;100.00;100756.94;5093793;27;96557;-29
2023/12/21 01:06:28;;;;;;;1.13;0.38;;;;;;;9.68;100.00;100770.59;5093974;27;96848;-29
2023/12/21 01:08:55;;;;;;;0.35;0.25;;;;;;;9.67;100.00;100754.44;5093264;27;99046;-28
2023/12/21 01:11:20;;;;;;;1.27;0.45;;;;;;;9.66;100.00;100744.59;5093656;27;102104;-28
2023/12/21 01:13:46;;;;;;;1.30;0.55;;;;;;;9.66;100.00;100736.47;5094006;27;102003;-28
2023/12/21 01:16:13;;;;;;;1.48;0.30;;;;;;;9.62;100.00;100741.19;5093906;27;96874;-28
2023/12/21 01:18:38;;;;;;;0.52;0.25;;;;;;;9.72;100.00;100750.50;5093476;27;99369;-28
2023/12/21 01:21:04;;;;;;;2.15;0.47;;;;;;;9.68;100.00;100732.72;5093728;27;97850;-30
2023/12/21 01:23:29;;;;;;;4.90;0.55;;;;;;;9.71;100.00;100734.38;5075044;27;96667;-28
2023/12/21 01:25:55;;;;;;;3.88;0.50;;;;;;;9.69;100.00;100720.94;5093872;27;96945;-28
2023/12/21 01:28:20;;;;;;;0.10;0.10;;;;;;;9.66;100.00;100707.59;5093760;27;98042;-28
2023/12/21 01:30:45;;;;;;;1.50;0.70;;;;;;;9.69;100.00;100717.34;5093627;27;98599;-28
2023/12/21 01:33:11;;;;;;;1.60;0.80;;;;;;;9.68;100.00;100719.19;5092575;27;96680;-28
2023/12/21 01:35:36;;;;;;;1.13;0.68;;;;;;;9.69;100.00;100715.53;5093749;27;96902;-29
2023/12/21 01:38:01;;;;;;;0.28;0.20;;;;;;;9.71;100.00;100710.91;5093505;27;105530;-28
2023/12/21 01:40:26;;;;;;;0.75;0.32;;;;;;;9.70;100.00;100700.16;5093448;27;100879;-29
2023/12/21 01:42:52;;;;;;;2.13;0.65;;;;;;;9.67;100.00;100700.34;5093581;27;96473;-28
2023/12/21 01:45:17;;;;;;;4.18;0.68;;;;;;;9.71;100.00;100724.41;5093372;27;99302;-30
2023/12/21 01:47:44;;;;;;;0.90;0.45;;;;;;;9.73;100.00;100708.09;5093392;27;96793;-28
2023/12/21 01:50:10;;;;;;;2.05;0.47;;;;;;;9.67;100.00;100698.50;5074602;27;100837;-29
2023/12/21 01:52:36;;;;;;;1.48;0.50;;;;;;;9.67;100.00;100698.50;5093226;27;96584;-27
2023/12/21 01:55:04;;;;;;;1.33;0.40;;;;;;;9.70;100.00;100705.56;5074726;27;96918;-28
2023/12/21 01:57:29;;;;;;;0.65;0.35;;;;;;;9.72;100.00;100699.09;5092587;27;97934;-28
2023/12/21 01:59:55;;;;;;;6.43;0.82;;;;;;;9.74;100.00;100694.47;5092798;27;99388;-28
2023/12/21 02:02:20;;;;;;;2.38;0.57;;;;;;;9.67;100.00;100668.75;5092929;27;96647;-28
2023/12/21 02:04:46;;;;;;;2.65;0.85;;;;;;;9.74;100.00;100683.66;5093652;27;96852;-27
2023/12/21 02:07:12;;;;;;;4.55;0.68;;;;;;;9.74;100.00;100672.84;5074474;27;100833;-28
2023/12/21 02:09:37;;;;;;;0.73;0.17;;;;;;;9.67;100.00;100663.34;5092868;27;99246;-28
2023/12/21 02:12:03;;;;;;;0.20;0.15;;;;;;;9.76;100.00;100676.31;5093229;27;96623;-28
2023/12/21 02:14:28;;;;;;;0.00;0.00;;;;;;;9.76;100.00;100681.72;5096070;27;96799;-28
2023/12/21 02:16:59;;;;;;;0.73;0.47;;;;;;;9.78;100.00;100674.41;5096451;27;97849;-27
2023/12/21 02:19:25;;;;;;;3.97;0.63;;;;;;;9.70;100.00;100646.97;5078001;27;101363;-28
2023/12/21 02:21:54;;;;;;;0.60;0.32;;;;;;;9.79;100.00;100659.03;5077501;27;97165;-28
2023/12/21 02:24:20;;;;;;;2.20;0.40;;;;;;;9.78;100.00;100668.97;5096436;27;96825;-28
2023/12/21 02:26:45;;;;;;;1.98;0.40;;;;;;;9.76;100.00;100654.69;5096568;27;97620;-29
2023/12/21 02:29:10;;;;;;;0.10;0.10;;;;;;;9.78;100.00;100647.34;5096505;27;97320;-29
2023/12/21 02:31:36;;;;;;;0.17;0.17;;;;;;;9.76;100.00;100645.69;5096391;27;96474;-29
2023/12/21 02:34:03;;;;;;;0.40;0.32;;;;;;;9.77;100.00;100637.50;5077402;27;96961;-28
2023/12/21 02:36:28;;;;;;;3.15;0.65;;;;;;;9.78;100.00;100619.44;5077700;27;100917;-29
2023/12/21 02:38:54;;;;;;;8.43;0.88;;;;;;;9.73;100.00;100610.75;5096718;27;105521;-29
2023/12/21 02:41:19;;;;;;;2.67;0.82;;;;;;;9.68;100.00;100621.84;5096064;27;96569;-29
2023/12/21 02:43:44;;;;;;;2.70;0.85;;;;;;;9.69;100.00;100631.69;5096030;27;96848;-28
2023/12/21 02:46:10;;;;;;;5.07;0.88;;;;;;;9.76;100.00;100626.75;5095465;27;97427;-27
2023/12/21 02:48:35;;;;;;;3.50;0.85;;;;;;;9.75;100.00;100623.19;5096292;27;98895;-28
2023/12/21 02:51:00;;;;;;;0.80;0.30;;;;;;;9.72;100.00;100622.50;5095376;27;101775;-27
2023/12/21 02:53:26;;;;;;;0.50;0.50;;;;;;;9.73;100.00;100625.13;5096366;27;96724;-27
2023/12/21 02:55:51;;;;;;;6.55;0.95;;;;;;;9.75;100.00;100606.09;5096310;27;100378;-28
2023/12/21 02:58:17;;;;;;;3.33;0.65;;;;;;;9.73;100.00;100589.97;5095606;27;99309;-28
2023/12/21 03:00:42;;;;;;;3.70;0.88;;;;;;;9.74;100.00;100588.97;5095461;27;96586;-27
2023/12/21 03:03:07;;;;;;;2.30;0.52;;;;;;;9.71;100.00;100556.72;5077898;27;96698;-28
2023/12/21 03:05:33;;;;;;;0.85;0.50;;;;;;;9.76;100.00;100551.91;5096127;27;97344;-29
2023/12/21 03:07:58;;;;;;;2.85;0.68;;;;;;;9.73;100.00;100551.25;5095643;27;99144;-28
2023/12/21 03:10:23;;;;;;;0.45;0.30;;;;;;;9.71;100.00;100545.91;5095345;27;96586;-28
2023/12/21 03:12:49;;;;;;;2.65;0.47;;;;;;;9.76;100.00;100530.25;5095896;27;96781;-28
2023/12/21 03:15:14;;;;;;;3.58;0.90;;;;;;;9.74;100.00;100529.47;5095445;27;99453;-28
2023/12/21 03:17:39;;;;;;;3.45;0.65;;;;;;;9.74;100.00;100524.06;5095542;27;99190;-28
2023/12/21 03:20:07;;;;;;;2.10;0.60;;;;;;;9.74;100.00;100523.22;5096185;27;96533;-29
2023/12/21 03:22:34;;;;;;;8.00;0.75;;;;;;;9.74;100.00;100524.06;5077058;27;96816;-27
2023/12/21 03:24:59;;;;;;;0.55;0.50;;;;;;;9.70;100.00;100495.50;5076475;27;100888;-28
2023/12/21 03:27:24;;;;;;;3.50;0.70;;;;;;;9.72;100.00;100492.69;5095874;27;97761;-28
2023/12/21 03:29:50;;;;;;;4.85;0.43;;;;;;;9.69;100.00;100490.19;5095576;27;100206;-29
2023/12/21 03:32:15;;;;;;;3.13;0.40;;;;;;;9.72;100.00;100501.66;5095426;27;96689;-28
2023/12/21 03:34:40;;;;;;;2.42;0.57;;;;;;;9.70;100.00;100524.34;5094726;27;99267;-28
2023/12/21 03:37:06;;;;;;;4.88;0.73;;;;;;;9.69;100.00;100523.50;5095197;27;105995;-28
2023/12/21 03:39:33;;;;;;;1.35;0.40;;;;;;;9.67;100.00;100506.50;5095421;27;96492;-27
2023/12/21 03:41:59;;;;;;;9.02;0.75;;;;;;;9.68;100.00;100493.88;5076797;27;96700;-28
2023/12/21 03:44:24;;;;;;;8.90;0.88;;;;;;;9.65;100.00;100478.69;5094943;27;98193;-28
2023/12/21 03:46:50;;;;;;;0.38;0.38;;;;;;;9.71;100.00;100478.28;5095048;27;99144;-31
2023/12/21 03:49:15;;;;;;;3.83;0.88;;;;;;;9.69;100.00;100469.41;5095467;27;96594;-28
2023/12/21 03:51:40;;;;;;;3.53;0.90;;;;;;;9.67;100.00;100470.47;5095496;27;96787;-28
2023/12/21 03:54:05;;;;;;;5.53;0.55;;;;;;;9.75;100.00;100476.28;5094654;27;109686;-28
2023/12/21 03:56:31;;;;;;;0.30;0.20;;;;;;;9.76;100.00;100484.28;5094749;27;103470;-28
2023/12/21 03:58:56;;;;;;;0.60;0.43;;;;;;;9.76;100.00;100469.88;5094327;27;101158;-28
2023/12/21 04:01:29;;;;;;;3.67;0.50;;;;;;;9.78;100.00;100478.78;5094239;27;99234;-28
2023/12/21 04:03:55;;;;;;;0.63;0.30;;;;;;;9.77;100.00;100460.78;5076298;27;100600;-28
2023/12/21 04:06:20;;;;;;;4.82;0.40;;;;;;;9.76;100.00;100459.94;5094614;27;99281;-29
2023/12/21 04:08:46;;;;;;;0.82;0.20;;;;;;;9.81;100.00;100456.94;5095057;27;96429;-29
2023/12/21 04:11:11;;;;;;;0.43;0.25;;;;;;;9.81;100.00;100423.63;5094807;27;100270;-28
2023/12/21 04:13:37;;;;;;;4.57;0.70;;;;;;;9.78;100.00;100425.53;5094556;27;99737;-28
2023/12/21 04:16:03;;;;;;;1.35;0.28;;;;;;;9.79;100.00;100423.69;5094951;27;99055;-28
2023/12/21 04:18:29;;;;;;;8.10;1.20;;;;;;;9.84;100.00;100413.44;5094666;27;96621;-28
2023/12/21 04:20:54;;;;;;;1.42;0.95;;;;;;;9.80;100.00;100401.13;5094692;27;96784;-28
2023/12/21 04:23:20;;;;;;;1.30;0.22;;;;;;;9.84;100.00;100385.53;5093915;27;99325;-28
2023/12/21 04:25:45;;;;;;;11.00;1.33;;;;;;;9.82;100.00;100382.06;5094406;27;106283;-28
2023/12/21 04:28:10;;;;;;;0.40;0.28;;;;;;;9.85;100.00;100377.31;5094345;27;96572;-28
2023/12/21 04:30:36;;;;;;;1.30;0.70;;;;;;;9.87;100.00;100375.41;5095076;27;96855;-29
2023/12/21 04:33:01;;;;;;;0.50;0.30;;;;;;;9.88;100.00;100370.84;5094238;27;98365;-28
2023/12/21 04:35:26;;;;;;;3.88;0.70;;;;;;;9.89;100.00;100364.44;5093838;27;97735;-27
2023/12/21 04:37:52;;;;;;;4.20;0.28;;;;;;;9.87;100.00;100369.13;5094293;27;96635;-28
2023/12/21 04:40:17;;;;;;;0.70;0.25;;;;;;;9.88;100.00;100363.59;5094907;27;105379;-28
2023/12/21 04:42:44;;;;;;;0.32;0.22;;;;;;;9.84;100.00;100370.16;5094111;27;98018;-28
2023/12/21 04:45:10;;;;;;;0.43;0.20;;;;;;;9.89;100.00;100351.81;5094398;27;97938;-28
2023/12/21 04:47:36;;;;;;;1.10;0.52;;;;;;;9.90;100.00;100361.66;5094130;27;96611;-28
2023/12/21 04:50:01;;;;;;;0.30;0.10;;;;;;;9.90;100.00;100358.09;5075454;27;96919;-28
2023/12/21 04:52:27;;;;;;;1.25;0.55;;;;;;;9.87;100.00;100347.47;5094221;27;97505;-27
2023/12/21 04:54:52;;;;;;;5.63;0.35;;;;;;;9.86;100.00;100356.56;5093996;27;102031;-28
2023/12/21 04:57:18;;;;;;;0.95;0.30;;;;;;;9.87;100.00;100342.94;5094112;27;96878;-28
2023/12/21 04:59:43;;;;;;;2.63;0.50;;;;;;;9.86;100.00;100346.59;5094265;27;96785;-28
2023/12/21 05:02:08;;;;;;;2.75;0.52;;;;;;;9.84;100.00;100356.63;5093518;27;99338;-27
2023/12/21 05:04:34;;;;;;;2.05;0.75;;;;;;;9.87;100.00;100358.31;5094160;27;98619;-28
2023/12/21 05:06:59;;;;;;;1.15;0.57;;;;;;;9.88;100.00;100354.63;5094188;27;96542;-28
2023/12/21 05:09:24;;;;;;;3.20;0.68;;;;;;;9.84;100.00;100337.69;5093958;27;96922;-28
2023/12/21 05:11:50;;;;;;;0.45;0.20;;;;;;;9.86;100.00;100319.53;5093362;27;97916;-28
2023/12/21 05:14:15;;;;;;;10.05;1.05;;;;;;;9.79;100.00;100280.34;5093642;27;99077;-28
2023/12/21 05:16:40;;;;;;;1.08;0.50;;;;;;;9.76;100.00;100265.19;5094006;27;96668;-28
2023/12/21 05:19:06;;;;;;;0.32;0.20;;;;;;;9.79;100.00;100270.38;5093730;27;96835;-27
2023/12/21 05:21:32;;;;;;;1.52;0.32;;;;;;;9.79;100.00;100277.66;5093848;27;98033;-28
2023/12/21 05:23:57;;;;;;;1.08;0.35;;;;;;;9.77;100.00;100288.59;5093731;27;97636;-28
2023/12/21 05:26:23;;;;;;;1.30;0.43;;;;;;;9.77;100.00;100303.91;5093627;27;96546;-28
2023/12/21 05:28:48;;;;;;;3.00;0.55;;;;;;;9.74;100.00;100312.25;5093960;27;96851;-29
2023/12/21 05:31:22;;;;;;;1.15;0.30;;;;;;;9.62;100.00;100300.41;5093128;27;102895;-28
2023/12/21 05:33:47;;;;;;;4.32;0.60;;;;;;;9.65;100.00;100300.19;5093325;27;97367;-29
2023/12/21 05:36:20;;;;;;;4.05;0.57;;;;;;;9.68;100.00;100304.56;5092742;27;99922;-28
2023/12/21 05:38:45;;;;;;;2.65;0.43;;;;;;;9.66;100.00;100301.09;5093735;27;96671;-28
2023/12/21 05:41:11;;;;;;;0.25;0.15;;;;;;;9.63;100.00;100299.47;5093333;27;99224;-28
2023/12/21 05:43:37;;;;;;;0.25;0.13;;;;;;;9.70;100.00;100310.72;5093083;27;105893;-32
2023/12/21 05:46:03;;;;;;;1.48;0.52;;;;;;;9.66;100.00;100284.88;5074958;27;96675;-28
2023/12/21 05:48:29;;;;;;;0.38;0.15;;;;;;;9.68;100.00;100283.78;5093322;27;96791;-28
2023/12/21 05:50:54;;;;;;;1.83;0.17;;;;;;;9.66;100.00;100264.09;5093050;27;97379;-28
2023/12/21 05:53:20;;;;;;;1.67;0.68;;;;;;;9.69;100.00;100273.84;5093799;27;97647;-28
2023/12/21 05:55:45;;;;;;;0.52;0.35;;;;;;;9.68;100.00;100266.72;5093332;27;96578;-28
2023/12/21 05:58:10;;;;;;;4.60;1.08;;;;;;;9.74;100.00;100266.28;5093524;27;96863;-28
2023/12/21 06:00:37;;;;;;;2.70;0.55;;;;;;;9.77;100.00;100266.06;5092375;27;107473;-28
2023/12/21 06:03:03;;;;;;;0.70;0.35;;;;;;;9.70;100.00;100253.91;5074338;27;98896;-28
2023/12/21 06:05:28;;;;;;;2.03;0.40;;;;;;;9.79;100.00;100250.59;5074608;27;96854;-28
2023/12/21 06:07:53;;;;;;;0.68;0.22;;;;;;;9.76;100.00;100240.84;5093410;27;96946;-28
2023/12/21 06:10:19;;;;;;;0.77;0.28;;;;;;;9.79;100.00;100237.94;5093137;27;97472;-28
2023/12/21 06:12:44;;;;;;;0.30;0.20;;;;;;;9.83;100.00;100245.84;5093121;27;97760;-28
2023/12/21 06:15:09;;;;;;;0.28;0.28;;;;;;;9.87;100.00;100229.31;5092896;27;96657;-28
2023/12/21 06:17:35;;;;;;;0.30;0.20;;;;;;;9.87;100.00;100215.78;5093853;27;96788;-28
2023/12/21 06:20:00;;;;;;;1.73;0.35;;;;;;;9.91;100.00;100217.28;5092994;27;97954;-29
2023/12/21 06:22:25;;;;;;;0.20;0.17;;;;;;;9.94;100.00;100200.88;5092690;27;99088;-28
2023/12/21 06:24:51;;;;;;;0.55;0.30;;;;;;;9.93;100.00;100200.97;5092308;27;96490;-28
2023/12/21 06:27:16;;;;;;;2.45;0.60;;;;;;;9.96;100.00;100195.34;5093026;27;96820;-28
2023/12/21 06:29:42;;;;;;;1.33;0.50;;;;;;;9.92;100.00;100181.16;5092950;27;97475;-28
2023/12/21 06:32:08;;;;;;;0.40;0.30;;;;;;;9.97;100.00;100179.00;5092494;27;99369;-29
2023/12/21 06:34:33;;;;;;;0.57;0.38;;;;;;;9.95;100.00;100182.78;5092373;27;96449;-28
2023/12/21 06:36:59;;;;;;;0.10;0.10;;;;;;;9.97;100.00;100186.25;5093010;27;96713;-28
2023/12/21 06:39:25;;;;;;;1.92;0.40;;;;;;;9.97;100.00;100176.28;5092408;27;99254;-28
2023/12/21 06:41:50;;;;;;;1.35;0.45;;;;;;;9.97;100.00;100170.03;5093254;27;97206;-28
2023/12/21 06:44:16;;;;;;;0.57;0.45;;;;;;;9.97;100.00;100188.97;5092902;27;96518;-28
2023/12/21 06:46:42;;;;;;;5.78;0.63;;;;;;;9.97;100.00;100180.84;5092547;27;96643;-27
2023/12/21 06:49:11;;;;;;;0.57;0.43;;;;;;;9.97;100.00;100165.47;5073352;27;101117;-28
2023/12/21 06:51:37;;;;;;;0.77;0.30;;;;;;;9.96;100.00;100166.47;5073452;27;100885;-28
2023/12/21 06:54:03;;;;;;;0.22;0.17;;;;;;;9.97;100.00;100170.88;5092479;27;96617;-28
2023/12/21 06:56:28;;;;;;;1.85;0.30;;;;;;;9.94;100.00;100154.03;5092778;27;96787;-28
2023/12/21 06:58:53;;;;;;;1.00;0.43;;;;;;;9.98;100.00;100160.91;5092391;27;110649;-28
2023/12/21 07:01:24;;;;;;;0.57;0.30;;;;;;;9.91;100.00;100121.75;5095773;27;98225;-28
2023/12/21 07:03:49;;;;;;;2.85;0.77;;;;;;;9.95;100.00;100128.69;5077391;27;96594;-28
2023/12/21 07:06:15;;;;;;;0.95;0.47;;;;;;;9.94;100.00;100135.09;5096209;27;99960;-28
2023/12/21 07:08:41;;;;;;;4.65;0.22;;;;;;;9.90;100.00;100126.31;5077273;27;100943;-28
2023/12/21 07:11:06;;;;;;;0.88;0.45;;;;;;;9.86;100.00;100124.78;5095870;27;97780;-28
2023/12/21 07:13:31;;;;;;;1.52;0.68;;;;;;;9.85;100.00;100127.59;5095329;27;96594;-29
2023/12/21 07:15:57;;;;;;;1.10;0.15;;;;;;;9.82;100.00;100111.56;5095598;27;96728;-28
2023/12/21 07:18:22;;;;;;;1.98;0.40;;;;;;;9.77;100.00;100099.25;5095185;27;107079;-28
2023/12/21 07:20:47;;;;;;;1.25;0.38;;;;;;;9.71;100.00;100115.91;5095646;27;97350;-28
2023/12/21 07:23:12;;;;;;;2.80;0.82;;;;;;;9.74;100.00;100110.28;5095425;27;96688;-28
2023/12/21 07:25:38;;;;;;;1.27;0.73;;;;;;;9.70;100.00;100103.38;5095767;27;96881;-28
2023/12/21 07:28:03;;;;;;;1.98;0.20;;;;;;;9.70;100.00;100116.00;5095340;27;102909;-28
2023/12/21 07:30:29;;;;;;;0.85;0.43;;;;;;;9.68;100.00;100105.31;5095905;27;97280;-29
2023/12/21 07:32:55;;;;;;;1.65;0.52;;;;;;;9.68;100.00;100099.91;5095247;27;96516;-28
2023/12/21 07:35:20;;;;;;;8.75;1.30;;;;;;;9.67;100.00;100100.00;5076866;27;96859;-28
2023/12/21 07:37:46;;;;;;;1.00;0.25;;;;;;;9.69;100.00;100092.66;5094712;27;97986;-29
2023/12/21 07:40:11;;;;;;;5.07;0.57;;;;;;;9.63;100.00;100069.63;5095281;27;97832;-29
2023/12/21 07:42:38;;;;;;;3.58;0.90;;;;;;;9.65;100.00;100083.88;5095185;27;96577;-28
2023/12/21 07:45:04;;;;;;;0.35;0.30;;;;;;;9.65;100.00;100080.31;5095420;27;96855;-28
2023/12/21 07:47:29;;;;;;;3.63;0.45;;;;;;;9.64;100.00;100079.44;5076419;27;101661;-28
2023/12/21 07:49:55;;;;;;;0.73;0.15;;;;;;;9.66;100.00;100085.63;5094842;27;97902;-28
2023/12/21 07:52:20;;;;;;;3.08;0.32;;;;;;;9.65;100.00;100073.06;5094767;27;96666;-28
2023/12/21 07:54:46;;;;;;;0.03;0.03;;;;;;;9.63;100.00;100063.31;5095682;27;96780;-28
2023/12/21 07:57:12;;;;;;;1.58;0.47;;;;;;;9.62;100.00;100083.25;5095209;27;97444;-27
2023/12/21 07:59:38;;;;;;;1.50;0.50;;;;;;;9.68;100.00;100067.47;5094773;27;99245;-28
2023/12/21 08:02:03;;;;;;;1.48;0.28;;;;;;;9.72;100.00;100079.75;5094075;27;96577;-28
2023/12/21 08:04:29;;;;;;;2.30;0.55;;;;;;;9.68;100.00;100080.13;5095139;27;96826;-28
2023/12/21 08:06:54;;;;;;;1.83;0.47;;;;;;;9.69;100.00;100061.06;5095091;27;97312;-28
2023/12/21 08:09:20;;;;;;;2.47;0.38;;;;;;;9.73;100.00;100040.94;5095063;27;97827;-28
2023/12/21 08:11:45;;;;;;;0.35;0.10;;;;;;;9.70;100.00;100034.88;5093728;27;96606;-28
2023/12/21 08:14:10;;;;;;;2.67;0.50;;;;;;;9.73;100.00;100030.13;5095047;27;96817;-29
2023/12/21 08:16:36;;;;;;;1.92;0.50;;;;;;;9.76;100.00;100031.75;5094827;27;97983;-28
2023/12/21 08:19:02;;;;;;;5.50;0.35;;;;;;;9.82;100.00;100061.06;5095074;27;97801;-29
2023/12/21 08:21:27;;;;;;;0.80;0.22;;;;;;;9.78;100.00;100048.72;5094328;27;96668;-28
2023/12/21 08:23:52;;;;;;;1.83;0.40;;;;;;;9.89;100.00;100045.25;5094936;27;96694;-28
2023/12/21 08:26:18;;;;;;;1.15;0.20;;;;;;;9.94;100.00;100024.16;5094242;27;98504;-28
2023/12/21 08:28:43;;;;;;;0.60;0.30;;;;;;;9.96;100.00;100005.94;5094312;27;99357;-28
2023/12/21 08:31:09;;;;;;;1.70;0.20;;;;;;;10.04;100.00;100027.94;5094788;27;96690;-29
2023/12/21 08:33:36;;;;;;;4.55;0.45;;;;;;;10.07;100.00;100053.91;5094647;27;96818;-28
2023/12/21 08:36:02;;;;;;;2.03;0.30;;;;;;;10.09;100.00;100036.56;5075723;27;100976;-27
2023/12/21 08:38:27;;;;;;;0.28;0.20;;;;;;;10.13;100.00;100031.78;5075670;27;101035;-28
2023/12/21 08:40:52;;;;;;;1.20;0.20;;;;;;;10.15;100.00;100032.53;5094526;27;96813;-29
2023/12/21 08:43:18;;;;;;;3.78;0.60;;;;;;;10.20;100.00;100014.13;5094809;27;97326;-28
2023/12/21 08:45:43;;;;;;;1.85;0.65;;;;;;;10.24;100.00;100018.34;5094399;27;97521;-28
2023/12/21 08:48:08;;;;;;;2.25;0.45;;;;;;;10.26;100.00;100029.06;5094113;27;98970;-27
2023/12/21 08:50:34;;;;;;;2.28;0.68;;;;;;;10.21;100.00;100018.56;5093561;27;96700;-29
2023/12/21 08:53:00;;;;;;;1.60;0.25;;;;;;;10.25;100.00;100017.38;5094496;27;96857;-28
2023/12/21 08:55:29;;;;;;;1.30;0.32;;;;;;;10.30;100.00;100020.63;5075422;27;101105;-28
2023/12/21 08:57:59;;;;;;;1.58;0.47;;;;;;;10.27;100.00;100019.94;5075266;27;100848;-28
2023/12/21 09:00:24;;;;;;;4.80;0.63;;;;;;;10.28;100.00;100035.22;5075566;27;96726;-27
2023/12/21 09:02:50;;;;;;;1.38;0.35;;;;;;;10.27;100.00;100017.25;5075242;27;96939;-28
2023/12/21 09:05:15;;;;;;;5.45;0.75;;;;;;;10.26;100.00;100023.66;5094030;27;97926;-28
2023/12/21 09:07:40;;;;;;;4.00;0.47;;;;;;;10.33;100.00;100028.53;5094275;27;97208;-28
2023/12/21 09:10:07;;;;;;;0.77;0.40;;;;;;;10.37;100.00;100018.34;5094208;27;96447;-27
2023/12/21 09:12:32;;;;;;;0.80;0.22;;;;;;;10.31;100.00;100010.66;5075215;27;97255;-28
2023/12/21 09:14:57;;;;;;;1.17;0.40;;;;;;;10.32;100.00;99999.75;5093633;27;97495;-28
2023/12/21 09:17:23;;;;;;;4.45;0.75;;;;;;;10.37;100.00;100021.06;5094125;27;97380;-27
2023/12/21 09:19:48;;;;;;;1.50;0.70;;;;;;;10.38;100.00;100012.81;5093758;27;96808;-28
2023/12/21 09:22:13;;;;;;;3.45;0.60;;;;;;;10.43;100.00;100028.69;5093455;27;96921;-28
2023/12/21 09:24:39;;;;;;;2.20;0.47;;;;;;;10.49;100.00;100011.16;5093494;27;99273;-28
2023/12/21 09:27:04;;;;;;;0.60;0.38;;;;;;;10.47;100.00;100013.97;5093817;27;96517;-29
2023/12/21 09:29:30;;;;;;;0.25;0.10;;;;;;;10.55;100.00;100021.50;5093817;27;96631;-27
2023/12/21 09:31:56;;;;;;;0.20;0.13;;;;;;;10.51;100.00;100011.88;5093900;27;96889;-27
2023/12/21 09:34:21;;;;;;;4.25;0.38;;;;;;;10.58;100.00;99997.78;5093186;27;99340;-28
2023/12/21 09:36:46;;;;;;;1.30;0.50;;;;;;;10.63;100.00;99997.44;5093654;27;97750;-28
2023/12/21 09:39:12;;;;;;;0.70;0.20;;;;;;;10.60;100.00;99998.50;5092846;27;96816;-28
2023/12/21 09:41:38;;;;;;;0.15;0.08;;;;;;;10.61;100.00;99997.53;5093764;27;96771;-28
2023/12/21 09:44:05;;;;;;;1.85;0.65;;;;;;;10.59;100.00;100006.78;5093229;27;97576;-28
2023/12/21 09:46:37;;;;;;;0.15;0.10;;;;;;;10.65;100.00;100008.13;5074757;27;100724;-28
2023/12/21 09:49:04;;;;;;;;;;;;;;;10.66;100.00;100013.44;5075241;27;96710;-28
2023/12/21 09:51:30;;;;;;;2.28;0.60;;;;;;;10.64;100.00;100007.28;5074934;27;96940;-30
2023/12/21 09:53:58;;;;;;;0.52;0.20;;;;;;;10.68;100.00;100018.72;5074747;27;99457;-28
2023/12/21 09:56:24;;;;;;;0.25;0.13;;;;;;;10.63;100.00;99994.75;5074893;27;98946;-28
2023/12/21 09:58:50;;;;;;;0.22;0.15;;;;;;;10.65;100.00;100018.97;5093501;27;96495;-28
2023/12/21 10:01:15;;;;;;;0.77;0.38;;;;;;;10.64;100.00;99991.03;5092902;27;96941;-28
2023/12/21 10:03:40;;;;;;;0.47;0.22;;;;;;;10.69;100.00;100012.34;5092464;27;98960;-28
2023/12/21 10:06:06;;;;;;;0.52;0.38;;;;;;;10.66;100.00;99997.19;5092949;27;99950;-27
2023/12/21 10:08:33;;;;;;;1.38;0.35;;;;;;;10.64;100.00;99996.44;5093190;27;96542;-28
2023/12/21 10:11:02;;;;;;;1.63;0.68;;;;;;;10.63;100.00;100016.41;5074477;27;96896;-29
2023/12/21 10:13:27;;;;;;;1.35;0.50;;;;;;;10.62;100.00;99995.69;5074368;27;101640;-29
2023/12/21 10:15:59;;;;;;;1.85;0.50;;;;;;;10.65;100.00;100008.13;5092834;27;99233;-29
2023/12/21 10:18:26;;;;;;;1.90;0.63;;;;;;;10.63;100.00;99997.44;5074392;27;96648;-28
2023/12/21 10:20:53;;;;;;;0.57;0.30;;;;;;;10.63;100.00;100017.25;5093859;27;96827;-28
2023/12/21 10:23:19;;;;;;;5.38;0.88;;;;;;;10.64;100.00;99991.03;5074094;27;101109;-30
2023/12/21 10:25:46;;;;;;;2.20;0.38;;;;;;;10.65;100.00;100003.59;5092781;27;99078;-27
2023/12/21 10:28:11;;;;;;;7.03;0.47;;;;;;;10.61;100.00;99975.88;5073730;27;97049;-28
2023/12/21 10:30:37;;;;;;;6.22;0.70;;;;;;;10.55;100.00;99981.75;5092519;27;96925;-28
2023/12/21 10:33:03;;;;;;;0.55;0.30;;;;;;;10.54;100.00;99984.59;5073825;27;99648;-28
2023/12/21 10:35:29;;;;;;;3.25;0.50;;;;;;;10.53;100.00;100002.66;5076838;27;100817;-28
2023/12/21 10:37:54;;;;;;;2.25;0.50;;;;;;;10.49;100.00;99968.69;5096604;27;96668;-27
2023/12/21 10:40:22;;;;;;;4.07;1.73;;;;;;;10.47;100.00;99967.09;5096244;27;96956;-28
2023/12/21 10:42:49;;;;;;;0.68;0.20;;;;;;;10.43;100.00;100001.63;5077619;27;101355;-29
2023/12/21 10:45:16;;;;;;;5.10;0.82;;;;;;;10.49;100.00;99968.69;5096284;27;97304;-28
2023/12/21 10:47:48;;;;;;;1.83;0.77;;;;;;;10.52;100.00;99959.47;5096429;27;96486;-28
2023/12/21 10:50:16;;;;;;;1.40;0.68;;;;;;;10.62;100.00;99949.66;5077621;27;96810;-29
2023/12/21 10:52:44;;;;;;;1.42;0.60;;;;;;;10.68;100.00;99968.16;5094096;27;99805;-28
2023/12/21 10:55:10;;;;;;;1.65;0.80;;;;;;;10.65;100.00;99965.66;5095236;27;97160;-31
2023/12/21 10:57:40;;;;;;;6.90;0.63;;;;;;;10.70;100.00;99965.31;5076738;27;96941;-28
2023/12/21 11:00:12;;;;;;;1.25;0.40;;;;;;;10.60;100.00;99952.47;5077299;27;96740;-28
2023/12/21 11:02:46;;;;;;;1.63;0.45;;;;;;;10.65;100.00;99976.50;5076902;27;101203;-27
2023/12/21 11:05:19;;;;;;;2.20;0.68;;;;;;;10.67;100.00;99979.09;5096053;27;97461;-28
2023/12/21 11:07:49;;;;;;;3.85;0.75;;;;;;;10.73;100.00;99989.47;5095810;27;96616;-29
2023/12/21 11:10:21;;;;;;;1.77;0.77;;;;;;;10.69;100.00;99961.75;5077665;27;96913;-29
2023/12/21 11:12:47;;;;;;;0.40;0.30;;;;;;;10.68;100.00;99967.28;5093560;27;98046;-28
2023/12/21 11:15:14;;;;;;;1.42;0.60;;;;;;;10.71;100.00;99951.66;5074602;27;100834;-31